Time;durP1;ratioP1;P1;durP2;ratioP2;P2;SDS_P1;SDS_P2;PMS_P1;PMS_P2;Temp;Humidity;BMP_temperature;BMP_pressure;BME280_temperature;BME280_humidity;BME280_pressure;Samples;Min_cycle;Max_cycle;Signal;HPM_P1;HPM_P2
2022/08/19 09:35:28;;;;;;;6.00;5.40;;;;;;;33.47;29.62;94607.34;4893932;29;20508;-87
2022/08/19 09:37:56;;;;;;;7.23;4.57;;;;;;;33.58;31.12;94608.94;4900116;29;20484;-92
2022/08/19 09:40:24;;;;;;;7.80;4.43;;;;;;;33.77;31.22;94606.38;4898421;29;20465;-89
2022/08/19 09:42:52;;;;;;;5.53;5.03;;;;;;;33.78;29.63;94600.66;4902380;29;20449;-86
2022/08/19 09:45:22;;;;;;;5.60;5.10;;;;;;;33.93;30.90;94607.13;4902978;29;20468;-86
2022/08/19 09:47:50;;;;;;;4.90;4.40;;;;;;;33.90;28.60;94602.25;4902204;29;20449;-88
2022/08/19 09:50:18;;;;;;;6.50;5.70;;;;;;;33.99;29.64;94603.25;4895997;29;20543;-84
2022/08/19 09:52:47;;;;;;;6.50;4.80;;;;;;;34.03;28.71;94598.88;4900420;29;20557;-87
2022/08/19 09:55:15;;;;;;;5.03;4.63;;;;;;;33.96;27.95;94592.94;4899342;29;20473;-88
2022/08/19 09:57:42;;;;;;;11.10;5.00;;;;;;;33.96;29.38;94596.47;4901611;29;20479;-89
2022/08/19 10:00:10;;;;;;;11.33;4.90;;;;;;;34.07;29.33;94597.22;4868591;29;20519;-87
2022/08/19 10:02:38;;;;;;;6.37;5.77;;;;;;;34.21;30.36;94591.94;4901093;29;20516;-90
2022/08/19 10:07:51;;;;;;;5.73;5.13;;;;;;;34.31;30.40;94576.31;4903647;29;20429;-88
2022/08/19 10:10:18;;;;;;;6.47;5.73;;;;;;;34.38;29.74;94584.16;4921273;29;20433;-86
2022/08/19 10:12:47;;;;;;;5.53;4.97;;;;;;;34.44;30.70;94572.16;4920354;29;20488;-87
2022/08/19 10:21:08;;;;;;;5.40;5.00;;;;;;;34.43;29.76;94574.06;4903124;29;20476;-84
2022/08/19 10:23:37;;;;;;;8.93;5.30;;;;;;;34.27;30.03;94572.53;4899362;29;20962;-89
2022/08/19 10:26:06;;;;;;;5.23;4.83;;;;;;;34.34;30.43;94566.78;4899571;29;20457;-88
2022/08/19 10:28:34;;;;;;;6.67;5.70;;;;;;;34.20;29.63;94566.59;4898729;29;20511;-89
2022/08/19 10:31:06;;;;;;;9.50;6.83;;;;;;;34.24;29.77;94566.84;4852576;29;20532;-89
2022/08/19 10:33:33;;;;;;;8.70;5.63;;;;;;;34.12;30.35;94557.16;4898833;29;20493;-88
2022/08/19 10:36:01;;;;;;;6.07;5.57;;;;;;;34.07;29.51;94551.72;4902503;29;20820;-85
2022/08/19 10:38:29;;;;;;;8.93;6.00;;;;;;;33.89;30.23;94560.59;4918448;29;20459;-85
2022/08/19 10:40:57;;;;;;;12.43;6.03;;;;;;;33.68;28.92;94562.63;4919480;29;20564;-89
2022/08/19 10:43:24;;;;;;;6.67;6.17;;;;;;;33.65;28.99;94560.47;4907140;29;20816;-88
2022/08/19 10:45:56;;;;;;;7.80;5.93;;;;;;;33.59;30.39;94561.59;4900911;29;20488;-89
2022/08/19 10:48:23;;;;;;;6.50;5.90;;;;;;;33.58;30.45;94554.53;4900588;29;20544;-87
2022/08/19 10:53:34;;;;;;;6.20;5.70;;;;;;;33.75;30.41;94545.94;4900543;29;20511;-86
2022/08/19 10:58:46;;;;;;;10.03;6.20;;;;;;;33.47;30.44;94548.31;4897883;29;20432;-86
2022/08/19 11:01:18;;;;;;;8.83;5.70;;;;;;;33.51;30.56;94545.84;4923147;29;20465;-86
2022/08/19 11:06:21;;;;;;;5.47;4.97;;;;;;;33.49;31.10;94548.03;5683742;23;21139;-87
2022/08/19 11:08:48;;;;;;;6.23;5.60;;;;;;;33.57;29.84;94547.47;5473632;23;20461;-82
2022/08/19 11:11:16;;;;;;;5.80;5.40;;;;;;;33.72;31.17;94539.16;5062099;23;20496;-85
2022/08/19 11:13:46;;;;;;;10.30;5.30;;;;;;;33.81;30.91;94532.00;4918674;29;20495;-86
2022/08/19 11:16:16;;;;;;;9.10;6.10;;;;;;;33.81;30.45;94537.47;4920744;29;20455;-86
2022/08/19 11:18:45;;;;;;;20.50;6.47;;;;;;;33.77;30.65;94544.56;4924141;29;20452;-85
2022/08/19 11:21:14;;;;;;;6.27;5.77;;;;;;;33.75;30.21;94544.03;4919883;29;20455;-86
2022/08/19 11:23:41;;;;;;;10.30;6.13;;;;;;;33.77;31.36;94543.75;4918295;29;20475;-87
2022/08/19 11:26:08;;;;;;;11.33;6.33;;;;;;;33.80;30.55;94535.84;4917944;29;20470;-86
2022/08/19 11:28:37;;;;;;;6.53;5.93;;;;;;;33.88;30.31;94530.94;4917478;29;20456;-87
2022/08/19 11:31:04;;;;;;;6.90;6.20;;;;;;;33.90;31.91;94529.56;4900180;29;20432;-86
2022/08/19 11:33:31;;;;;;;6.33;5.73;;;;;;;33.96;31.14;94530.31;4917719;29;20574;-86
2022/08/19 11:35:59;;;;;;;9.30;6.13;;;;;;;33.78;30.65;94527.13;4919450;29;20515;-86
2022/08/19 11:38:26;;;;;;;6.80;6.20;;;;;;;33.79;30.92;94517.88;4918437;29;20547;-87
2022/08/19 11:40:57;;;;;;;7.80;6.17;;;;;;;33.89;31.71;94510.78;4917345;29;20464;-85
2022/08/19 11:43:26;;;;;;;5.97;5.30;;;;;;;33.86;30.66;94523.06;4917418;29;20448;-87
2022/08/19 11:45:55;;;;;;;6.47;5.87;;;;;;;33.72;29.39;94514.66;4917986;29;21029;-87
2022/08/19 11:48:22;;;;;;;6.90;5.90;;;;;;;33.84;29.77;94517.88;4884828;29;20456;-89
2022/08/19 11:50:49;;;;;;;6.80;6.17;;;;;;;33.93;31.49;94509.09;4917346;29;20998;-88
2022/08/19 11:53:18;;;;;;;7.07;6.43;;;;;;;34.00;30.32;94506.84;4917968;29;20488;-87
2022/08/19 11:55:45;;;;;;;7.83;6.20;;;;;;;33.87;30.94;94508.34;4918301;29;20541;-85
2022/08/19 11:58:13;;;;;;;7.23;6.53;;;;;;;33.71;30.33;94501.34;4917382;29;20468;-87
2022/08/19 12:00:41;;;;;;;7.43;5.90;;;;;;;33.68;31.27;94500.00;4916758;29;20483;-87
2022/08/19 12:03:09;;;;;;;9.13;5.97;;;;;;;33.73;31.24;94502.69;4916203;29;20825;-87
2022/08/19 12:05:38;;;;;;;8.10;6.23;;;;;;;33.72;31.90;94495.63;4916567;29;20455;-87
2022/08/19 12:08:05;;;;;;;7.10;6.40;;;;;;;33.81;31.44;94493.09;4916286;29;20479;-86
2022/08/19 12:10:32;;;;;;;6.90;6.20;;;;;;;33.66;29.92;94496.75;4916589;29;20480;-87
2022/08/19 12:13:00;;;;;;;9.07;6.60;;;;;;;33.73;30.59;94488.25;4935469;29;20479;-86
2022/08/19 12:15:28;;;;;;;7.73;6.20;;;;;;;33.77;31.75;94486.59;4940648;29;20444;-84
2022/08/19 12:23:51;;;;;;;9.17;6.50;;;;;;;33.87;30.86;94467.50;5107562;23;20484;-85
2022/08/19 12:31:29;;;;;;;7.73;6.10;;;;;;;33.81;30.78;94463.16;4941872;23;5248601;-88
2022/08/19 12:33:56;;;;;;;6.43;5.93;;;;;;;33.73;31.27;94467.31;4897175;29;20232;-88
2022/08/19 12:36:24;;;;;;;7.53;6.40;;;;;;;33.64;30.96;94455.41;4897038;29;20445;-89
2022/08/19 12:38:53;;;;;;;7.07;6.33;;;;;;;33.59;30.88;94463.63;4897382;29;20456;-87
2022/08/19 12:41:22;;;;;;;9.20;6.73;;;;;;;33.66;30.00;94458.66;4897685;29;20828;-87
2022/08/19 12:43:49;;;;;;;6.90;6.23;;;;;;;33.62;29.95;94451.34;4897707;29;20492;-86
2022/08/19 12:46:15;;;;;;;6.33;5.70;;;;;;;33.50;30.28;94452.50;4895104;29;20488;-88
2022/08/19 12:48:44;;;;;;;9.60;6.30;;;;;;;33.45;30.17;94449.84;4897070;29;20457;-88
2022/08/19 12:51:13;;;;;;;7.57;6.60;;;;;;;33.40;30.34;94449.06;4896668;29;21031;-87
2022/08/19 12:53:40;;;;;;;7.50;6.80;;;;;;;33.48;30.74;94449.25;4919018;29;20496;-88
2022/08/19 12:56:10;;;;;;;7.13;6.57;;;;;;;33.56;31.48;94447.88;4919734;29;20447;-89
2022/08/19 12:58:37;;;;;;;11.03;6.90;;;;;;;33.62;31.88;94446.72;4919384;29;20455;-89
2022/08/19 13:01:10;;;;;;;7.73;7.07;;;;;;;33.61;30.50;94442.38;4919558;29;20452;-87
2022/08/19 13:03:37;;;;;;;7.10;6.50;;;;;;;33.59;30.56;94436.41;4919995;29;20817;-88
2022/08/19 13:06:04;;;;;;;8.60;7.07;;;;;;;33.57;31.41;94444.03;4919529;29;20451;-88
2022/08/19 13:08:31;;;;;;;6.97;6.37;;;;;;;33.70;31.41;94437.94;4919283;29;20455;-88
2022/08/19 13:10:59;;;;;;;7.63;5.77;;;;;;;33.80;32.37;94437.03;4919542;29;20461;-88
2022/08/19 13:13:27;;;;;;;7.43;6.83;;;;;;;33.87;31.16;94440.28;4920217;29;20498;-88
2022/08/19 13:16:02;;;;;;;7.60;6.20;;;;;;;33.90;30.84;94439.69;4920092;29;20452;-88
2022/08/19 13:18:29;;;;;;;7.17;6.47;;;;;;;33.97;31.06;94436.63;4920526;29;20546;-86
2022/08/19 13:20:56;;;;;;;15.30;6.67;;;;;;;33.95;30.63;94427.94;4921025;29;20800;-86
2022/08/19 13:23:23;;;;;;;7.20;6.50;;;;;;;33.89;30.48;94431.81;4920249;29;20460;-87
2022/08/19 13:25:57;;;;;;;8.53;7.20;;;;;;;33.91;30.42;94426.91;4901944;29;20519;-88
2022/08/19 13:28:24;;;;;;;8.17;7.37;;;;;;;33.81;30.47;94422.31;4886467;29;20483;-86
2022/08/19 13:33:37;;;;;;;8.50;6.83;;;;;;;33.86;31.09;94425.84;4919378;29;20841;-87
2022/08/19 13:36:07;;;;;;;6.50;5.90;;;;;;;33.80;31.89;94420.69;4901908;29;20440;-89
2022/08/19 13:38:34;;;;;;;8.03;7.23;;;;;;;33.72;31.02;94419.41;4919379;29;20535;-86
2022/08/19 13:41:07;;;;;;;7.10;6.50;;;;;;;33.70;30.88;94418.06;4919319;29;20946;-83
2022/08/19 13:43:34;;;;;;;10.20;6.60;;;;;;;33.70;31.17;94409.91;4919345;29;20515;-85
2022/08/19 13:46:13;;;;;;;7.40;6.80;;;;;;;33.81;31.09;94411.41;4919171;29;20451;-86
2022/08/19 13:48:40;;;;;;;9.83;7.03;;;;;;;33.90;32.36;94408.94;4919380;29;20483;-85
2022/08/19 13:51:09;;;;;;;8.20;7.37;;;;;;;33.96;31.71;94407.78;4919270;29;20569;-86
2022/08/19 13:53:37;;;;;;;7.73;7.00;;;;;;;33.99;30.82;94404.47;4919409;29;20523;-85
2022/08/19 13:56:06;;;;;;;10.90;7.63;;;;;;;33.99;31.39;94402.56;4920005;29;21023;-85
2022/08/19 13:58:33;;;;;;;9.10;6.50;;;;;;;34.04;30.64;94399.78;4920351;29;20452;-85
2022/08/19 14:01:02;;;;;;;7.93;7.13;;;;;;;34.03;30.37;94402.78;4920610;29;20447;-86
2022/08/19 14:03:28;;;;;;;10.23;7.67;;;;;;;34.05;31.49;94400.59;4918277;29;20459;-86
2022/08/19 14:05:56;;;;;;;8.27;7.00;;;;;;;34.04;30.98;94390.81;4919717;29;20456;-85
2022/08/19 14:08:23;;;;;;;7.87;7.27;;;;;;;34.05;30.75;94395.16;4919293;29;20452;-86
2022/08/19 14:10:50;;;;;;;11.03;7.63;;;;;;;34.03;30.70;94397.34;4919389;29;20460;-86
2022/08/19 14:13:20;;;;;;;11.07;6.50;;;;;;;34.02;31.49;94396.53;4919528;29;20604;-85
2022/08/19 14:15:47;;;;;;;10.50;7.13;;;;;;;34.00;31.60;94393.31;4919084;29;20463;-85
2022/08/19 14:18:15;;;;;;;13.00;8.63;;;;;;;34.01;30.60;94399.56;4919259;29;20990;-86
2022/08/19 14:20:43;;;;;;;9.73;8.73;;;;;;;33.99;31.25;94390.88;4918525;29;20460;-85
2022/08/19 14:23:10;;;;;;;15.17;11.90;;;;;;;34.00;31.33;94392.50;4885736;29;20494;-86
2022/08/19 14:25:37;;;;;;;9.13;8.03;;;;;;;33.99;32.31;94383.50;4918348;29;20915;-85
2022/08/19 14:28:04;;;;;;;8.87;7.10;;;;;;;33.99;31.88;94382.69;4919135;29;20494;-86
2022/08/19 14:30:33;;;;;;;10.13;9.23;;;;;;;34.00;32.49;94385.13;4919195;29;20483;-87
2022/08/19 14:33:01;;;;;;;17.40;8.43;;;;;;;34.01;32.61;94378.59;4885173;29;20484;-89
2022/08/19 14:35:33;;;;;;;9.33;8.43;;;;;;;34.04;32.75;94377.19;4918739;29;20452;-86
2022/08/19 14:38:00;;;;;;;9.53;7.00;;;;;;;34.02;32.16;94382.13;4918279;29;20456;-86
2022/08/19 14:40:29;;;;;;;9.20;8.30;;;;;;;34.02;32.16;94373.94;4918527;29;20452;-85
2022/08/19 14:43:03;;;;;;;12.03;6.93;;;;;;;33.99;32.27;94375.34;4918571;29;20453;-87
2022/08/19 14:45:31;;;;;;;7.73;7.03;;;;;;;33.99;31.41;94378.06;4918665;29;20452;-87
2022/08/19 14:47:59;;;;;;;12.43;8.30;;;;;;;33.84;31.10;94370.88;4917969;29;20448;-88
2022/08/19 14:50:26;;;;;;;7.30;6.70;;;;;;;33.84;31.61;94370.88;4918481;29;20538;-87
2022/08/19 14:53:00;;;;;;;7.30;6.70;;;;;;;33.81;31.95;94367.88;4919150;29;20503;-86
2022/08/19 14:55:27;;;;;;;8.83;7.93;;;;;;;33.65;31.55;94371.84;4918990;29;20535;-85
2022/08/19 14:57:54;;;;;;;10.77;7.03;;;;;;;33.50;32.62;94364.63;4918068;29;20854;-84
2022/08/19 15:00:20;;;;;;;11.97;7.50;;;;;;;33.55;32.35;94362.69;4918134;29;20460;-82
2022/08/19 15:02:47;;;;;;;7.90;7.10;;;;;;;33.54;32.48;94363.78;4917660;29;20924;-84
2022/08/19 15:05:14;;;;;;;11.57;7.00;;;;;;;33.52;32.47;94359.72;4918089;29;20451;-84
2022/08/19 15:07:41;;;;;;;8.60;6.63;;;;;;;33.44;33.18;94361.13;4918082;29;20455;-84
2022/08/19 15:10:12;;;;;;;7.10;6.40;;;;;;;33.51;32.19;94363.53;4917933;29;20831;-84
2022/08/19 15:12:40;;;;;;;7.97;7.07;;;;;;;33.43;33.14;94369.59;4917598;29;20464;-84
2022/08/19 15:15:08;;;;;;;9.30;5.90;;;;;;;33.52;31.66;94367.88;4917218;29;20954;-84
2022/08/19 15:17:37;;;;;;;7.47;6.60;;;;;;;33.44;32.99;94373.94;4917750;29;20455;-83
2022/08/19 15:20:04;;;;;;;8.17;7.37;;;;;;;33.39;32.14;94365.81;4917739;29;20448;-83
2022/08/19 15:22:31;;;;;;;8.67;7.73;;;;;;;33.28;32.07;94365.06;4917973;29;20487;-84
2022/08/19 15:24:58;;;;;;;7.67;6.93;;;;;;;33.35;32.65;94364.78;4917853;29;20916;-84
2022/08/19 15:27:26;;;;;;;7.27;6.53;;;;;;;33.35;32.62;94356.63;4901818;29;20868;-83
2022/08/19 15:29:53;;;;;;;10.03;7.30;;;;;;;33.33;32.52;94359.63;4898336;29;20823;-83
2022/08/19 15:32:21;;;;;;;15.17;8.20;;;;;;;33.29;32.17;94360.44;4882650;29;20563;-86
2022/08/19 15:34:48;;;;;;;7.60;6.90;;;;;;;33.31;33.01;94348.22;4924589;29;20494;-85
2022/08/19 15:37:16;;;;;;;7.27;6.57;;;;;;;33.29;33.64;94360.44;4955085;23;20487;-83
2022/08/19 15:39:50;;;;;;;16.30;7.17;;;;;;;33.20;33.04;94355.59;4938214;29;20807;-85
2022/08/19 15:42:18;;;;;;;7.73;6.97;;;;;;;33.15;33.33;94349.38;4941097;29;20436;-85
2022/08/19 15:44:47;;;;;;;8.00;6.90;;;;;;;33.01;32.96;94356.59;4939927;29;20437;-83
2022/08/19 15:47:18;;;;;;;6.90;6.40;;;;;;;32.99;32.93;94362.31;5544747;23;20497;-86
2022/08/19 15:49:45;;;;;;;9.97;7.30;;;;;;;32.83;33.38;94355.34;5033744;23;20496;-81
2022/08/19 15:52:12;;;;;;;7.37;6.70;;;;;;;32.83;32.92;94358.88;4921138;29;20938;-87
2022/08/19 15:54:39;;;;;;;6.80;6.27;;;;;;;32.84;32.06;94352.34;4912781;29;20485;-79
2022/08/19 16:08:09;;;;;;;9.53;6.90;;;;;;;32.69;32.88;94362.47;4910672;29;20544;-82
2022/08/19 16:10:36;;;;;;;7.20;6.50;;;;;;;32.65;33.50;94368.44;4922268;29;20464;-82
2022/08/19 16:13:04;;;;;;;7.00;5.57;;;;;;;32.62;33.62;94369.00;4927764;29;20455;-83
2022/08/19 16:15:33;;;;;;;8.00;6.50;;;;;;;32.56;33.84;94366.59;4929047;29;20442;-84
2022/08/19 16:18:03;;;;;;;9.10;6.23;;;;;;;32.50;33.75;94365.00;4934482;29;20838;-81
2022/08/19 16:20:29;;;;;;;8.17;6.97;;;;;;;32.47;34.13;94365.56;4921301;29;20949;-82
2022/08/19 16:23:10;;;;;;;7.37;6.77;;;;;;;32.42;33.69;94362.88;4908696;29;20447;-83
2022/08/19 16:25:38;;;;;;;6.60;6.00;;;;;;;32.41;34.14;94367.50;4911063;29;20946;-84
2022/08/19 16:28:05;;;;;;;6.93;6.03;;;;;;;32.35;33.96;94358.53;4937283;29;20969;-83
2022/08/19 16:30:33;;;;;;;12.10;7.50;;;;;;;32.35;34.39;94360.44;4926547;29;20455;-82
2022/08/19 16:33:00;;;;;;;8.70;7.20;;;;;;;32.33;33.77;94368.88;4915200;29;20453;-83
2022/08/19 16:35:27;;;;;;;8.17;6.10;;;;;;;32.34;34.72;94361.53;4928847;29;20474;-83
2022/08/19 16:37:54;;;;;;;9.80;7.03;;;;;;;32.28;35.02;94365.38;4896488;29;20463;-85
2022/08/19 16:40:23;;;;;;;8.30;5.90;;;;;;;32.27;34.88;94361.03;4915572;29;20455;-83
2022/08/19 16:42:52;;;;;;;6.53;5.90;;;;;;;32.22;34.71;94361.03;4928960;29;20435;-83
2022/08/19 16:45:20;;;;;;;10.10;6.57;;;;;;;32.18;34.97;94370.81;4895960;29;20448;-84
2022/08/19 16:47:49;;;;;;;6.70;6.10;;;;;;;32.10;36.00;94364.06;4927936;29;20459;-84
2022/08/19 16:50:16;;;;;;;7.53;6.73;;;;;;;32.09;36.24;94369.75;4927582;29;20483;-84
2022/08/19 16:52:45;;;;;;;9.40;6.40;;;;;;;32.09;36.24;94370.56;4937405;29;20463;-87
2022/08/19 16:55:12;;;;;;;10.57;7.33;;;;;;;31.92;36.74;94367.38;4930016;29;20487;-85
2022/08/19 16:57:40;;;;;;;8.10;6.37;;;;;;;31.91;37.49;94371.19;4925361;29;20460;-85
2022/08/19 17:00:10;;;;;;;12.40;7.57;;;;;;;31.86;37.08;94363.88;4926150;29;20475;-87
2022/08/19 17:02:38;;;;;;;7.13;6.53;;;;;;;31.91;37.67;94373.88;4923844;29;20454;-87
2022/08/19 17:05:08;;;;;;;10.10;7.20;;;;;;;31.92;38.35;94375.50;4923186;29;20479;-85
2022/08/19 17:07:35;;;;;;;7.80;7.03;;;;;;;31.89;38.66;94371.44;4923841;29;20950;-85
2022/08/19 17:10:04;;;;;;;9.00;7.50;;;;;;;31.82;39.88;94381.78;4921970;29;20574;-86
2022/08/19 17:12:31;;;;;;;10.10;6.10;;;;;;;31.78;40.28;94385.31;4908957;29;20451;-85
2022/08/19 17:14:58;;;;;;;9.90;7.90;;;;;;;31.71;40.30;94383.69;4932427;29;20823;-85
2022/08/19 17:17:25;;;;;;;9.67;7.90;;;;;;;31.66;40.96;94385.56;4933367;29;20445;-85
2022/08/19 17:19:52;;;;;;;15.10;9.37;;;;;;;31.59;41.73;94388.56;4933333;29;20436;-84
2022/08/19 17:22:20;;;;;;;11.00;8.33;;;;;;;31.51;41.20;94391.00;4933058;29;20440;-84
2022/08/19 17:24:47;;;;;;;8.50;7.70;;;;;;;31.39;41.88;94385.88;4932522;29;20440;-82
2022/08/19 17:27:14;;;;;;;10.20;8.20;;;;;;;31.33;44.68;94397.81;4932054;29;20460;-83
2022/08/19 17:29:40;;;;;;;9.93;7.80;;;;;;;31.24;45.34;94394.00;4930733;29;20965;-82
2022/08/19 17:32:09;;;;;;;9.97;8.37;;;;;;;31.09;45.19;94397.47;4928374;29;20443;-82
2022/08/19 17:34:35;;;;;;;10.37;7.43;;;;;;;30.94;45.50;94400.16;4937323;29;20900;-83
2022/08/19 17:37:23;;;;;;;11.73;8.90;;;;;;;30.82;46.53;94412.06;4931424;29;20456;-81
2022/08/19 17:39:52;;;;;;;14.33;9.50;;;;;;;30.75;46.23;94406.09;4882423;29;20453;-81
2022/08/19 17:42:19;;;;;;;10.50;8.27;;;;;;;30.70;46.21;94416.94;4907892;29;20463;-83
2022/08/19 17:44:45;;;;;;;15.10;8.67;;;;;;;30.64;47.22;94417.16;4923286;29;20475;-81
2022/08/19 17:47:12;;;;;;;11.53;8.67;;;;;;;30.57;47.44;94414.69;4920357;29;20497;-82
2022/08/19 17:49:39;;;;;;;15.80;8.03;;;;;;;30.47;46.96;94426.28;4922895;29;20523;-81
2022/08/19 17:52:06;;;;;;;16.70;8.53;;;;;;;30.44;48.15;94420.59;4909578;29;20500;-81
2022/08/19 17:54:33;;;;;;;9.23;8.23;;;;;;;30.33;47.76;94435.16;4922714;29;20473;-82
2022/08/19 17:57:01;;;;;;;10.33;9.33;;;;;;;30.27;47.19;94431.63;4918246;29;20442;-82
2022/08/19 17:59:28;;;;;;;9.60;8.40;;;;;;;30.19;47.61;94430.22;4915980;29;20505;-84
2022/08/19 18:01:55;;;;;;;9.67;8.13;;;;;;;30.10;47.36;94434.53;4902390;29;20452;-82
2022/08/19 18:04:24;;;;;;;9.90;9.00;;;;;;;30.08;48.67;94438.56;4859801;29;20459;-82
2022/08/19 18:06:53;;;;;;;9.63;8.77;;;;;;;29.96;47.82;94440.63;4909157;29;20460;-80
2022/08/19 18:09:20;;;;;;;16.17;8.00;;;;;;;29.93;48.85;94441.97;4910141;29;20448;-82
2022/08/19 18:11:47;;;;;;;14.70;7.73;;;;;;;29.89;48.33;94443.56;4912410;29;20489;-82
2022/08/19 18:14:15;;;;;;;9.00;8.20;;;;;;;29.83;48.77;94436.50;4917452;29;20484;-82
2022/08/19 18:16:45;;;;;;;10.30;8.30;;;;;;;29.81;49.90;94438.66;4914783;29;20452;-84
2022/08/19 18:19:12;;;;;;;8.10;7.40;;;;;;;29.73;49.35;94442.63;4922844;29;20510;-82
2022/08/19 18:21:39;;;;;;;8.97;8.10;;;;;;;29.71;48.52;94443.97;4912144;29;20456;-83
2022/08/19 18:24:06;;;;;;;8.07;7.30;;;;;;;29.66;49.85;94442.03;4916615;29;20463;-84
2022/08/19 18:26:33;;;;;;;12.10;8.57;;;;;;;29.65;49.29;94447.72;4909243;29;20456;-83
2022/08/19 18:29:00;;;;;;;8.47;7.50;;;;;;;29.64;48.01;94451.50;4908147;29;20468;-81
2022/08/19 18:31:29;;;;;;;15.43;8.63;;;;;;;29.62;50.34;94445.53;4921923;29;20448;-80
2022/08/19 18:33:55;;;;;;;9.23;8.23;;;;;;;29.65;48.72;94455.81;4918111;29;20969;-83
2022/08/19 18:36:22;;;;;;;8.10;7.40;;;;;;;29.59;49.56;94454.97;4902173;29;20216;-82
2022/08/19 18:54:11;;;;;;;10.90;8.30;;;;;;;29.22;49.63;94454.91;4845688;29;20521;-82
2022/08/19 18:56:43;;;;;;;9.23;8.23;;;;;;;29.17;49.27;94460.25;4860042;29;20470;-83
2022/08/19 18:59:12;;;;;;;9.03;8.30;;;;;;;29.15;50.52;94456.97;4866579;29;20510;-84
2022/08/19 19:01:46;;;;;;;8.93;8.10;;;;;;;29.07;50.03;94460.97;4866380;29;20467;-82
2022/08/19 19:04:13;;;;;;;21.03;8.70;;;;;;;29.05;51.37;94462.28;4860017;29;20538;-83
2022/08/19 19:06:41;;;;;;;9.40;8.50;;;;;;;28.98;50.92;94460.63;4871801;29;20521;-83
2022/08/19 19:09:12;;;;;;;8.50;7.50;;;;;;;28.96;51.13;94470.88;4873993;29;20439;-82
2022/08/19 19:11:42;;;;;;;7.90;7.20;;;;;;;28.95;51.65;94469.25;4870728;29;20892;-83
2022/08/19 19:20:52;;;;;;;10.63;7.40;;;;;;;28.71;51.75;94491.34;4904509;29;20553;-82
2022/08/19 19:23:20;;;;;;;11.43;7.57;;;;;;;28.61;52.56;94489.31;4918248;29;20455;-82
2022/08/19 19:25:49;;;;;;;11.03;8.50;;;;;;;28.58;50.70;94493.34;4917889;29;20927;-81
2022/08/19 19:28:15;;;;;;;10.60;8.80;;;;;;;28.48;52.21;94501.31;4917893;29;20458;-79
2022/08/19 19:30:42;;;;;;;9.93;7.67;;;;;;;28.44;51.13;94496.69;4927398;29;20455;-81
2022/08/19 19:33:09;;;;;;;9.43;8.47;;;;;;;28.45;51.04;94506.41;4916666;29;20819;-82
2022/08/19 19:35:36;;;;;;;12.77;9.73;;;;;;;28.43;52.19;94503.97;4907132;29;20498;-82
2022/08/19 19:38:03;;;;;;;8.87;8.07;;;;;;;28.37;52.30;94505.78;4930483;29;20506;-83
2022/08/19 19:40:31;;;;;;;8.43;7.63;;;;;;;28.37;50.58;94511.19;4902910;29;20697;-83
2022/08/19 19:42:59;;;;;;;14.30;7.43;;;;;;;28.31;51.13;94516.72;4899888;29;20448;-82
2022/08/19 19:45:26;;;;;;;8.60;7.80;;;;;;;28.32;52.28;94515.66;4912738;29;20457;-82
2022/08/19 19:47:53;;;;;;;9.40;8.40;;;;;;;28.20;50.55;94504.16;4921534;29;20934;-83
2022/08/19 19:50:21;;;;;;;8.00;7.20;;;;;;;28.20;50.35;94510.34;4915696;29;20457;-82
2022/08/19 19:52:48;;;;;;;9.20;8.40;;;;;;;28.17;50.80;94513.56;4907921;29;20460;-82
2022/08/19 19:55:17;;;;;;;8.20;7.57;;;;;;;28.12;52.02;94513.50;4903780;29;20504;-82
2022/08/19 19:57:45;;;;;;;11.13;8.63;;;;;;;28.12;51.49;94518.06;4906801;29;20453;-83
2022/08/19 20:00:17;;;;;;;8.73;8.03;;;;;;;28.08;51.30;94515.06;4911884;29;20538;-82
2022/08/19 20:02:44;;;;;;;8.53;7.83;;;;;;;28.07;51.44;94514.25;4909927;29;20456;-82
2022/08/19 20:05:11;;;;;;;10.30;8.60;;;;;;;27.98;51.62;94517.59;4921172;29;20934;-81
2022/08/19 20:10:22;;;;;;;10.53;8.10;;;;;;;27.92;51.21;94522.09;4925746;29;20483;-82
2022/08/19 20:12:50;;;;;;;9.33;8.43;;;;;;;27.90;51.77;94515.31;4914361;29;20512;-81
2022/08/19 20:15:19;;;;;;;8.30;7.53;;;;;;;27.91;51.01;94519.63;4915162;29;20535;-83
2022/08/19 20:17:46;;;;;;;8.40;7.60;;;;;;;27.90;50.90;94526.91;4915624;29;20590;-82
2022/08/19 20:20:19;;;;;;;9.10;8.23;;;;;;;27.80;50.72;94521.38;4913736;29;20443;-82
2022/08/19 20:22:46;;;;;;;12.80;7.63;;;;;;;27.71;50.44;94515.56;4907697;29;20494;-82
2022/08/19 20:25:15;;;;;;;11.80;7.63;;;;;;;27.68;51.97;94513.34;4910224;29;20549;-82
2022/08/19 20:27:42;;;;;;;9.03;7.70;;;;;;;27.54;51.33;94516.59;4918647;29;20934;-83
2022/08/19 20:30:13;;;;;;;9.10;8.20;;;;;;;27.40;50.86;94522.28;4921050;29;20483;-82
2022/08/19 20:32:42;;;;;;;11.00;7.93;;;;;;;27.35;53.44;94524.06;4903615;29;20444;-84
2022/08/19 20:35:10;;;;;;;10.13;8.70;;;;;;;27.34;51.35;94528.66;4920956;29;20579;-83
2022/08/19 20:37:37;;;;;;;8.80;7.63;;;;;;;27.35;51.50;94524.91;4920322;29;20459;-83
2022/08/19 20:40:08;;;;;;;8.33;7.53;;;;;;;27.35;51.59;94519.50;4920616;29;20871;-83
2022/08/19 20:42:35;;;;;;;8.60;7.70;;;;;;;27.30;52.35;94530.19;4920389;29;20515;-85
2022/08/19 20:45:07;;;;;;;11.13;8.07;;;;;;;27.30;51.73;94534.78;4920441;29;20455;-81
2022/08/19 20:47:34;;;;;;;8.17;7.47;;;;;;;27.31;52.30;94529.13;4915863;29;20467;-85
2022/08/19 20:50:04;;;;;;;7.70;7.00;;;;;;;27.30;52.15;94542.84;4920569;29;20465;-83
2022/08/19 20:52:31;;;;;;;8.80;7.90;;;;;;;26.84;53.22;94555.41;4918628;29;20523;-82
2022/08/19 20:54:58;;;;;;;9.53;8.57;;;;;;;26.81;53.55;94563.97;4914278;29;20496;-83
2022/08/19 20:57:25;;;;;;;9.93;9.03;;;;;;;26.70;54.44;94554.88;4913365;29;20463;-82
2022/08/19 20:59:52;;;;;;;10.70;8.90;;;;;;;26.85;54.67;94552.47;4907084;29;20465;-83
2022/08/19 21:02:19;;;;;;;9.93;8.67;;;;;;;26.94;54.70;94555.63;4919560;29;20460;-82
2022/08/19 21:04:46;;;;;;;10.30;9.30;;;;;;;27.03;55.68;94559.59;4912040;29;20787;-81
2022/08/19 21:07:15;;;;;;;9.30;8.43;;;;;;;27.13;54.63;94561.66;4921194;29;20454;-83
2022/08/19 21:09:42;;;;;;;13.63;8.40;;;;;;;27.21;56.22;94569.38;4893273;29;20467;-82
2022/08/19 21:12:14;;;;;;;10.30;8.60;;;;;;;27.27;54.03;94559.50;4920294;29;20870;-84
2022/08/19 21:14:43;;;;;;;12.30;8.60;;;;;;;27.28;54.11;94563.84;4920888;29;20843;-82
2022/08/19 21:17:10;;;;;;;11.33;8.30;;;;;;;27.29;53.30;94565.47;4923479;29;20456;-83
2022/08/19 21:19:36;;;;;;;8.70;7.80;;;;;;;27.15;52.79;94560.34;4920445;29;21014;-83
2022/08/19 21:22:04;;;;;;;8.53;7.70;;;;;;;27.21;53.24;94555.09;4919722;29;20515;-83
2022/08/19 21:24:33;;;;;;;9.20;8.30;;;;;;;27.25;53.65;94556.25;4919827;29;20450;-83
2022/08/19 21:27:00;;;;;;;8.03;7.23;;;;;;;27.19;52.68;94551.81;4919471;29;20471;-84
2022/08/19 21:29:26;;;;;;;9.57;8.77;;;;;;;26.98;53.12;94556.78;4917621;29;20487;-84
2022/08/19 21:31:53;;;;;;;13.73;8.17;;;;;;;26.90;53.26;94546.41;4919311;29;20791;-83
2022/08/19 21:34:20;;;;;;;10.73;8.77;;;;;;;26.82;53.59;94555.66;4919883;29;20450;-83
2022/08/19 21:36:47;;;;;;;9.27;8.20;;;;;;;26.79;53.30;94560.69;4917394;29;20844;-83
2022/08/19 21:39:13;;;;;;;8.17;7.50;;;;;;;26.81;53.58;94566.66;4919343;29;20452;-83
2022/08/19 21:41:42;;;;;;;9.40;8.50;;;;;;;26.73;53.93;94567.03;4919876;29;20460;-83
2022/08/19 21:44:08;;;;;;;9.10;8.30;;;;;;;26.62;54.07;94567.88;4919219;29;20452;-84
2022/08/19 21:46:36;;;;;;;11.00;7.77;;;;;;;26.61;53.90;94568.94;4919189;29;20483;-84
2022/08/19 21:49:04;;;;;;;10.70;7.80;;;;;;;26.52;53.75;94558.53;4920210;29;20456;-82
2022/08/19 21:51:30;;;;;;;9.83;8.93;;;;;;;26.53;54.44;94557.47;4919990;29;20495;-83
2022/08/19 21:53:57;;;;;;;8.13;7.43;;;;;;;26.51;54.19;94556.88;4919416;29;20538;-83
2022/08/19 21:56:24;;;;;;;8.23;7.53;;;;;;;26.58;54.82;94550.56;4919107;29;20519;-83
2022/08/19 21:58:54;;;;;;;9.80;8.80;;;;;;;26.67;54.12;94549.16;4919110;29;20463;-83
2022/08/19 22:01:21;;;;;;;9.53;8.00;;;;;;;26.65;53.58;94556.66;4901942;29;20452;-83
2022/08/19 22:03:47;;;;;;;9.10;8.17;;;;;;;26.66;53.62;94553.72;4919177;29;20452;-83
2022/08/19 22:06:15;;;;;;;9.03;7.47;;;;;;;26.68;53.59;94550.78;4916711;29;20463;-83
2022/08/19 22:08:43;;;;;;;8.23;7.53;;;;;;;26.71;53.78;94561.06;4919507;29;20785;-84
2022/08/19 22:11:10;;;;;;;10.93;7.77;;;;;;;26.74;53.41;94556.03;4919273;29;20448;-84
2022/08/19 22:13:37;;;;;;;8.90;8.00;;;;;;;26.71;53.47;94556.50;4919114;29;20448;-83
2022/08/19 22:16:07;;;;;;;9.00;8.30;;;;;;;26.74;53.24;94550.63;4918871;29;20607;-84